Time;durP1;ratioP1;P1;durP2;ratioP2;P2;SDS_P1;SDS_P2;PMS_P1;PMS_P2;Temp;Humidity;BMP_temperature;BMP_pressure;BME280_temperature;BME280_humidity;BME280_pressure;Samples;Min_cycle;Max_cycle;Signal;HPM_P1;HPM_P2
2022/01/18 00:00:43;;;;;;;0.43;0.10;;;;;;;;;;4199785;28;20048;-34
2022/01/18 00:02:44;;;;;;;0.20;0.13;;;;;;;;;;4199533;28;20091;-35
2022/01/18 00:04:44;;;;;;;0.10;0.10;;;;;;;;;;4199362;28;20048;-34
2022/01/18 00:06:49;;;;;;;0.20;0.10;;;;;;;;;;4198807;28;20543;-38
2022/01/18 00:08:50;;;;;;;0.00;0.00;;;;;;;;;;4199404;28;20053;-36
2022/01/18 00:10:52;;;;;;;0.10;0.10;;;;;;;;;;4199417;28;20074;-35
2022/01/18 00:17:40;;;;;;;0.00;0.00;;;;;;;;;;4199200;28;20407;-37
2022/01/18 00:19:41;;;;;;;0.38;0.10;;;;;;;;;;4199555;28;20108;-35
2022/01/18 00:24:02;;;;;;;0.27;0.20;;;;;;;;;;4199031;28;20065;-37
2022/01/18 00:26:04;;;;;;;0.10;0.10;;;;;;;;;;4199058;28;20056;-33
2022/01/18 00:28:06;;;;;;;0.15;0.10;;;;;;;;;;4181321;28;20214;-36
2022/01/18 00:32:17;;;;;;;0.10;0.10;;;;;;;;;;4198897;28;20480;-35
2022/01/18 00:34:24;;;;;;;0.10;0.10;;;;;;;;;;4198985;28;20484;-33
2022/01/18 00:37:23;;;;;;;0.10;0.10;;;;;;;;;;4199126;28;20048;-35
2022/01/18 00:38:49;;;;;;;0.10;0.10;;;;;;;;;;4195764;28;20094;-34
2022/01/18 00:40:50;;;;;;;0.10;0.10;;;;;;;;;;4197951;28;20053;-34
2022/01/18 00:42:51;;;;;;;0.20;0.20;;;;;;;;;;4198951;28;20109;-33
2022/01/18 00:44:52;;;;;;;0.20;0.10;;;;;;;;;;4198737;28;20370;-36
2022/01/18 00:46:54;;;;;;;0.22;0.10;;;;;;;;;;4198597;28;20052;-36
2022/01/18 00:48:57;;;;;;;0.68;0.20;;;;;;;;;;4198681;28;20097;-35
2022/01/18 00:50:58;;;;;;;0.15;0.10;;;;;;;;;;4198923;28;20132;-35
2022/01/18 00:52:59;;;;;;;0.10;0.10;;;;;;;;;;4198066;28;20044;-33
2022/01/18 00:55:01;;;;;;;0.10;0.10;;;;;;;;;;4198269;28;20048;-37
2022/01/18 00:57:03;;;;;;;0.38;0.22;;;;;;;;;;4198523;28;20404;-33
2022/01/18 00:59:04;;;;;;;0.20;0.20;;;;;;;;;;4198533;28;20098;-34
2022/01/18 01:01:05;;;;;;;0.30;0.20;;;;;;;;;;4198579;28;20110;-35
2022/01/18 01:03:06;;;;;;;0.17;0.10;;;;;;;;;;4198350;28;20052;-34
2022/01/18 01:05:07;;;;;;;0.20;0.10;;;;;;;;;;4198310;28;20484;-36
2022/01/18 01:07:08;;;;;;;0.28;0.15;;;;;;;;;;4197924;28;20048;-33
2022/01/18 01:09:09;;;;;;;0.20;0.10;;;;;;;;;;4197069;28;20049;-32
2022/01/18 01:11:11;;;;;;;0.10;0.10;;;;;;;;;;4198399;28;20060;-35
2022/01/18 01:13:13;;;;;;;0.10;0.10;;;;;;;;;;4198252;28;20049;-38
2022/01/18 01:15:16;;;;;;;0.40;0.10;;;;;;;;;;4198259;28;20055;-35
2022/01/18 01:19:53;;;;;;;0.10;0.10;;;;;;;;;;4197764;28;20132;-38
2022/01/18 01:43:19;;;;;;;0.13;0.10;;;;;;;;;;4196315;28;20126;-35
2022/01/18 01:45:20;;;;;;;0.10;0.10;;;;;;;;;;4197671;28;20492;-33
2022/01/18 01:47:23;;;;;;;0.80;0.10;;;;;;;;;;4197552;28;20052;-39
2022/01/18 01:49:25;;;;;;;0.10;0.10;;;;;;;;;;4197738;28;20553;-34
2022/01/18 01:51:30;;;;;;;0.15;0.10;;;;;;;;;;4197781;28;20481;-33
2022/01/18 01:53:33;;;;;;;0.15;0.08;;;;;;;;;;4197434;28;20052;-34
2022/01/18 01:55:34;;;;;;;0.30;0.10;;;;;;;;;;4197631;28;20049;-35
2022/01/18 01:57:35;;;;;;;0.10;0.08;;;;;;;;;;4197628;28;20052;-33
2022/01/18 01:59:37;;;;;;;0.57;0.10;;;;;;;;;;4197663;28;20110;-33
2022/01/18 02:01:43;;;;;;;0.20;0.20;;;;;;;;;;4197475;28;20052;-33
2022/01/18 02:03:44;;;;;;;0.55;0.20;;;;;;;;;;4197492;28;20473;-36
2022/01/18 02:05:45;;;;;;;0.10;0.10;;;;;;;;;;4197481;28;20048;-36
2022/01/18 02:07:47;;;;;;;0.30;0.10;;;;;;;;;;4196204;28;20049;-35
2022/01/18 02:09:48;;;;;;;0.10;0.10;;;;;;;;;;4197474;28;20048;-33
2022/01/18 02:11:51;;;;;;;0.47;0.35;;;;;;;;;;4197334;28;20052;-36
2022/01/18 02:13:52;;;;;;;0.25;0.10;;;;;;;;;;4197551;28;20370;-34
2022/01/18 02:22:42;;;;;;;0.10;0.10;;;;;;;;;;4196837;28;20082;-36
2022/01/18 02:24:43;;;;;;;0.20;0.10;;;;;;;;;;4197063;28;20105;-34
2022/01/18 02:26:46;;;;;;;0.00;0.00;;;;;;;;;;4197151;28;20431;-37
2022/01/18 02:28:47;;;;;;;0.10;0.10;;;;;;;;;;4197323;28;20052;-37
2022/01/18 02:30:50;;;;;;;0.03;0.03;;;;;;;;;;4196234;28;20094;-34
2022/01/18 02:32:51;;;;;;;0.38;0.10;;;;;;;;;;4196918;28;20074;-35
2022/01/18 02:34:52;;;;;;;0.10;0.10;;;;;;;;;;4197356;28;20048;-33
2022/01/18 02:36:53;;;;;;;0.10;0.10;;;;;;;;;;4196661;28;20087;-34
2022/01/18 02:38:54;;;;;;;0.13;0.10;;;;;;;;;;4197458;28;20049;-34
2022/01/18 02:40:57;;;;;;;0.22;0.10;;;;;;;;;;4197210;28;20477;-33
2022/01/18 02:43:46;;;;;;;0.17;0.10;;;;;;;;;;4197094;28;20049;-36
2022/01/18 02:45:21;;;;;;;0.20;0.10;;;;;;;;;;4197224;28;20048;-39
2022/01/18 02:47:22;;;;;;;0.20;0.00;;;;;;;;;;4197036;28;20057;-33
2022/01/18 02:49:24;;;;;;;0.00;0.00;;;;;;;;;;4197083;28;20092;-36
2022/01/18 02:51:25;;;;;;;0.13;0.03;;;;;;;;;;4197286;28;20472;-37
2022/01/18 02:53:26;;;;;;;0.32;0.10;;;;;;;;;;4196504;28;20053;-39
2022/01/18 02:55:27;;;;;;;0.17;0.10;;;;;;;;;;4197061;28;20087;-33
2022/01/18 02:57:28;;;;;;;0.10;0.10;;;;;;;;;;4196972;28;20105;-33
2022/01/18 02:59:48;;;;;;;0.30;0.10;;;;;;;;;;4197072;28;20053;-32
2022/01/18 03:04:09;;;;;;;0.10;0.10;;;;;;;;;;4197228;28;20045;-36
2022/01/18 03:06:10;;;;;;;0.10;0.10;;;;;;;;;;4197017;28;20114;-36
2022/01/18 03:08:12;;;;;;;0.10;0.10;;;;;;;;;;4196386;28;20524;-37
2022/01/18 03:10:13;;;;;;;0.38;0.20;;;;;;;;;;4197010;28;20052;-34
2022/01/18 03:12:15;;;;;;;0.10;0.08;;;;;;;;;;4197100;28;20053;-34
2022/01/18 03:14:16;;;;;;;0.63;0.10;;;;;;;;;;4196831;28;20389;-36
2022/01/18 03:16:17;;;;;;;0.10;0.10;;;;;;;;;;4196814;28;20048;-32
2022/01/18 03:18:18;;;;;;;0.10;0.10;;;;;;;;;;4197304;28;20377;-33
2022/01/18 03:20:20;;;;;;;0.10;0.10;;;;;;;;;;4200056;28;20049;-32
2022/01/18 03:22:21;;;;;;;0.00;0.00;;;;;;;;;;4199505;28;20052;-36
2022/01/18 03:26:33;;;;;;;0.00;0.00;;;;;;;;;;4199953;28;20063;-33
2022/01/18 03:28:34;;;;;;;0.10;0.00;;;;;;;;;;4199777;28;20078;-36
2022/01/18 03:30:39;;;;;;;0.32;0.10;;;;;;;;;;4199890;28;20107;-35
2022/01/18 03:32:40;;;;;;;0.93;0.10;;;;;;;;;;4199791;28;20111;-35
2022/01/18 03:34:41;;;;;;;0.10;0.10;;;;;;;;;;4200254;28;20121;-34
2022/01/18 03:36:42;;;;;;;0.22;0.10;;;;;;;;;;4199670;28;20050;-39
2022/01/18 03:38:43;;;;;;;0.10;0.10;;;;;;;;;;4199598;28;20171;-34
2022/01/18 03:40:44;;;;;;;0.22;0.10;;;;;;;;;;4199921;28;20238;-34
2022/01/18 03:42:46;;;;;;;0.08;0.05;;;;;;;;;;4199730;28;20045;-34
2022/01/18 03:44:49;;;;;;;0.22;0.10;;;;;;;;;;4199669;28;20504;-35
2022/01/18 03:46:50;;;;;;;0.03;0.03;;;;;;;;;;4199595;28;20122;-36
2022/01/18 03:48:52;;;;;;;0.10;0.10;;;;;;;;;;4199509;28;20508;-34
2022/01/18 03:50:53;;;;;;;0.10;0.10;;;;;;;;;;4199678;28;20073;-38
2022/01/18 03:52:54;;;;;;;0.00;0.00;;;;;;;;;;4199369;28;20048;-35
2022/01/18 03:54:55;;;;;;;0.10;0.08;;;;;;;;;;4199609;28;20370;-33
2022/01/18 03:56:56;;;;;;;0.10;0.10;;;;;;;;;;4198161;28;20056;-36
2022/01/18 03:58:57;;;;;;;0.05;0.05;;;;;;;;;;4199537;28;20094;-37
2022/01/18 04:00:58;;;;;;;0.45;0.10;;;;;;;;;;4198166;28;20048;-33
2022/01/18 04:02:59;;;;;;;0.45;0.20;;;;;;;;;;4199371;28;20090;-34
2022/01/18 04:05:01;;;;;;;0.05;0.05;;;;;;;;;;4199395;28;20048;-33
2022/01/18 04:07:02;;;;;;;0.10;0.10;;;;;;;;;;4198738;28;20048;-37
2022/01/18 04:09:03;;;;;;;0.00;0.00;;;;;;;;;;4199329;28;20374;-36
2022/01/18 04:11:04;;;;;;;0.17;0.13;;;;;;;;;;4199324;28;20070;-34
2022/01/18 04:13:05;;;;;;;0.55;0.10;;;;;;;;;;4199296;28;20049;-37
2022/01/18 04:15:07;;;;;;;0.38;0.10;;;;;;;;;;4199265;28;20381;-36
2022/01/18 04:28:34;;;;;;;0.25;0.10;;;;;;;;;;4198863;28;20052;-32
2022/01/18 04:30:35;;;;;;;0.20;0.10;;;;;;;;;;4198348;28;20482;-34
2022/01/18 04:32:36;;;;;;;0.00;0.00;;;;;;;;;;4199219;28;20052;-36
2022/01/18 04:34:39;;;;;;;0.38;0.20;;;;;;;;;;4198972;28;20052;-35
2022/01/18 04:36:40;;;;;;;0.32;0.10;;;;;;;;;;4198880;28;20094;-32
2022/01/18 04:38:41;;;;;;;0.10;0.10;;;;;;;;;;4198377;28;20458;-36
2022/01/18 04:40:45;;;;;;;0.22;0.10;;;;;;;;;;4197678;28;20053;-34
2022/01/18 04:49:35;;;;;;;;;;;;;;;;;;4199268;28;20106;-33
2022/01/18 04:51:37;;;;;;;0.10;0.10;;;;;;;;;;4198610;28;20413;-35
2022/01/18 04:53:40;;;;;;;0.85;0.20;;;;;;;;;;4198380;28;20053;-39
2022/01/18 04:55:40;;;;;;;0.22;0.08;;;;;;;;;;4198828;28;20056;-35
2022/01/18 04:57:53;;;;;;;0.05;0.05;;;;;;;;;;4198664;28;20093;-37
2022/01/18 04:59:54;;;;;;;0.20;0.10;;;;;;;;;;4198663;28;20052;-35
2022/01/18 05:01:55;;;;;;;0.20;0.20;;;;;;;;;;4198520;28;20381;-35
2022/01/18 05:03:56;;;;;;;0.15;0.10;;;;;;;;;;4198403;28;20097;-36
2022/01/18 05:06:00;;;;;;;0.20;0.10;;;;;;;;;;4198468;28;20052;-36
2022/01/18 05:08:04;;;;;;;0.22;0.10;;;;;;;;;;4197896;28;20079;-35
2022/01/18 05:10:05;;;;;;;0.13;0.10;;;;;;;;;;4198665;28;20052;-33
2022/01/18 05:12:09;;;;;;;0.10;0.10;;;;;;;;;;4198296;28;20052;-37
2022/01/18 05:23:02;;;;;;;1.27;0.10;;;;;;;;;;4197683;28;20052;-35
2022/01/18 05:25:03;;;;;;;0.20;0.10;;;;;;;;;;4197837;28;20060;-34
2022/01/18 05:27:04;;;;;;;0.25;0.00;;;;;;;;;;4197959;28;20052;-38
2022/01/18 05:29:05;;;;;;;0.20;0.10;;;;;;;;;;4198025;28;20044;-37
2022/01/18 05:31:06;;;;;;;0.38;0.35;;;;;;;;;;4198025;28;20098;-35
2022/01/18 05:33:07;;;;;;;0.03;0.00;;;;;;;;;;4197857;28;20074;-35
2022/01/18 05:35:08;;;;;;;0.22;0.10;;;;;;;;;;4198096;28;20048;-35
2022/01/18 05:37:09;;;;;;;0.10;0.10;;;;;;;;;;4197568;28;20091;-33
2022/01/18 05:39:11;;;;;;;0.52;0.10;;;;;;;;;;4195399;28;20060;-40
2022/01/18 05:41:13;;;;;;;0.43;0.20;;;;;;;;;;4180917;28;20053;-36
2022/01/18 05:43:14;;;;;;;0.20;0.10;;;;;;;;;;4180612;28;20041;-38
2022/01/18 05:45:15;;;;;;;0.10;0.10;;;;;;;;;;4181591;28;20088;-33
2022/01/18 05:47:16;;;;;;;0.30;0.17;;;;;;;;;;4181907;28;20056;-37
2022/01/18 05:49:18;;;;;;;1.35;0.30;;;;;;;;;;4197319;28;20356;-32
2022/01/18 05:51:19;;;;;;;0.10;0.10;;;;;;;;;;4197982;28;20040;-32
2022/01/18 05:53:20;;;;;;;0.15;0.10;;;;;;;;;;4195976;28;20562;-36
2022/01/18 05:55:21;;;;;;;0.30;0.20;;;;;;;;;;4197636;28;20044;-39
2022/01/18 05:57:22;;;;;;;0.45;0.15;;;;;;;;;;4191787;28;20099;-35
2022/01/18 05:59:33;;;;;;;0.35;0.30;;;;;;;;;;4197668;28;20489;-35
2022/01/18 06:01:38;;;;;;;0.30;0.20;;;;;;;;;;4189798;28;20060;-35
2022/01/18 06:04:03;;;;;;;0.63;0.10;;;;;;;;;;4195830;28;20064;-34
2022/01/18 06:08:20;;;;;;;0.10;0.10;;;;;;;;;;4194865;28;20193;-39
2022/01/18 06:10:21;;;;;;;0.30;0.10;;;;;;;;;;4195297;28;20083;-39
2022/01/18 06:12:27;;;;;;;0.50;0.20;;;;;;;;;;4195290;28;20113;-33
2022/01/18 06:14:28;;;;;;;0.45;0.40;;;;;;;;;;4196077;28;20066;-34
2022/01/18 06:16:29;;;;;;;0.20;0.10;;;;;;;;;;4195481;28;20041;-35
2022/01/18 06:18:30;;;;;;;0.10;0.10;;;;;;;;;;4195401;28;20543;-36
2022/01/18 06:20:33;;;;;;;0.47;0.30;;;;;;;;;;4195430;28;20390;-36
2022/01/18 06:22:34;;;;;;;0.80;0.10;;;;;;;;;;4195147;28;20560;-33
2022/01/18 06:24:34;;;;;;;0.88;0.30;;;;;;;;;;4195063;28;20055;-33
2022/01/18 06:26:35;;;;;;;0.80;0.10;;;;;;;;;;4194014;28;20527;-33
2022/01/18 06:28:36;;;;;;;0.38;0.13;;;;;;;;;;4195334;28;20048;-33
2022/01/18 06:30:37;;;;;;;0.55;0.32;;;;;;;;;;4187670;28;20487;-37
2022/01/18 06:32:39;;;;;;;2.10;0.20;;;;;;;;;;4187190;28;20071;-34
2022/01/18 06:34:41;;;;;;;0.60;0.20;;;;;;;;;;4182878;28;20057;-38
2022/01/18 06:36:42;;;;;;;0.80;0.20;;;;;;;;;;4191167;28;20049;-35
2022/01/18 06:38:43;;;;;;;0.10;0.10;;;;;;;;;;4191556;28;20059;-37
2022/01/18 06:40:45;;;;;;;0.77;0.30;;;;;;;;;;4194672;28;20614;-36
2022/01/18 06:42:46;;;;;;;0.52;0.30;;;;;;;;;;4183390;28;20369;-40
2022/01/18 06:44:46;;;;;;;0.47;0.20;;;;;;;;;;4177944;28;20088;-35
2022/01/18 06:46:48;;;;;;;2.30;0.30;;;;;;;;;;4190927;28;20049;-35
2022/01/18 06:48:49;;;;;;;0.77;0.20;;;;;;;;;;4193749;28;20399;-34
2022/01/18 06:50:50;;;;;;;0.85;0.30;;;;;;;;;;4188620;28;20052;-35
2022/01/18 06:52:51;;;;;;;2.22;0.32;;;;;;;;;;4186436;28;20056;-42
2022/01/18 06:54:52;;;;;;;1.88;0.40;;;;;;;;;;4189965;28;20049;-33
2022/01/18 06:56:53;;;;;;;1.25;0.20;;;;;;;;;;4189337;28;20110;-40
2022/01/18 06:58:54;;;;;;;1.85;0.20;;;;;;;;;;4194073;28;20476;-33
2022/01/18 07:00:55;;;;;;;1.27;0.20;;;;;;;;;;4192991;28;20056;-35
2022/01/18 07:02:56;;;;;;;2.03;0.30;;;;;;;;;;4193190;28;20604;-39
2022/01/18 07:04:57;;;;;;;1.60;0.20;;;;;;;;;;4191452;28;20113;-39
2022/01/18 07:06:59;;;;;;;3.63;0.40;;;;;;;;;;4184804;28;20458;-36
2022/01/18 07:09:00;;;;;;;1.30;0.20;;;;;;;;;;4190110;28;20048;-35
2022/01/18 07:11:01;;;;;;;1.00;0.25;;;;;;;;;;4187989;28;20053;-35
2022/01/18 07:13:02;;;;;;;0.38;0.22;;;;;;;;;;4189176;28;20173;-35
2022/01/18 07:15:06;;;;;;;0.93;0.50;;;;;;;;;;4184340;28;20208;-35
2022/01/18 07:17:08;;;;;;;0.30;0.15;;;;;;;;;;4189640;28;20040;-39
2022/01/18 07:19:09;;;;;;;0.50;0.13;;;;;;;;;;4182132;28;20052;-35
2022/01/18 07:21:10;;;;;;;2.45;0.60;;;;;;;;;;4181381;28;20060;-36
2022/01/18 07:23:13;;;;;;;1.20;0.22;;;;;;;;;;4178703;28;20121;-32
2022/01/18 07:25:15;;;;;;;1.45;0.40;;;;;;;;;;4185720;28;21377;-35
2022/01/18 07:27:17;;;;;;;0.55;0.20;;;;;;;;;;4182985;28;20113;-34
2022/01/18 07:29:18;;;;;;;2.08;0.40;;;;;;;;;;4185281;28;20049;-40
2022/01/18 07:31:19;;;;;;;3.40;0.30;;;;;;;;;;4188628;28;20048;-35
2022/01/18 07:33:20;;;;;;;0.98;0.35;;;;;;;;;;4190148;28;20515;-32
2022/01/18 07:35:21;;;;;;;0.75;0.20;;;;;;;;;;4186181;28;20052;-36
2022/01/18 07:37:23;;;;;;;0.95;0.30;;;;;;;;;;4186294;28;20074;-38
2022/01/18 07:39:24;;;;;;;1.42;0.52;;;;;;;;;;4187228;28;20048;-36
2022/01/18 07:41:25;;;;;;;0.63;0.25;;;;;;;;;;4186400;28;20048;-36
2022/01/18 07:43:26;;;;;;;1.00;0.30;;;;;;;;;;4187742;28;20558;-36
2022/01/18 07:45:28;;;;;;;0.40;0.30;;;;;;;;;;4186028;28;20056;-37
2022/01/18 07:47:29;;;;;;;0.57;0.30;;;;;;;;;;4181851;28;20818;-39
2022/01/18 07:49:30;;;;;;;0.90;0.25;;;;;;;;;;4185802;28;20052;-38
2022/01/18 07:51:31;;;;;;;0.43;0.30;;;;;;;;;;4166700;28;20079;-38
2022/01/18 07:53:32;;;;;;;0.60;0.20;;;;;;;;;;4178808;28;20071;-39
2022/01/18 07:55:33;;;;;;;0.85;0.30;;;;;;;;;;4178422;28;20051;-35
2022/01/18 07:57:34;;;;;;;2.40;0.32;;;;;;;;;;4182533;28;20082;-36
2022/01/18 07:59:35;;;;;;;0.57;0.20;;;;;;;;;;4187535;28;20389;-37
2022/01/18 08:01:36;;;;;;;1.27;0.30;;;;;;;;;;4177259;28;20341;-42
2022/01/18 08:03:37;;;;;;;0.95;0.32;;;;;;;;;;4168446;28;20109;-38
2022/01/18 08:05:38;;;;;;;0.60;0.28;;;;;;;;;;4170236;28;20057;-38
2022/01/18 08:07:40;;;;;;;0.32;0.30;;;;;;;;;;4182556;28;20056;-37
2022/01/18 08:09:43;;;;;;;1.35;0.30;;;;;;;;;;4177142;28;20427;-38
2022/01/18 08:11:44;;;;;;;0.95;0.20;;;;;;;;;;4181838;28;20056;-42
2022/01/18 08:13:48;;;;;;;0.82;0.20;;;;;;;;;;4174387;28;20094;-37
2022/01/18 08:15:58;;;;;;;0.65;0.20;;;;;;;;;;4180746;28;20432;-38
2022/01/18 08:18:00;;;;;;;0.45;0.30;;;;;;;;;;4175295;28;20056;-38
2022/01/18 08:20:01;;;;;;;0.47;0.20;;;;;;;;;;4179611;28;20048;-39
2022/01/18 08:22:02;;;;;;;0.80;0.40;;;;;;;;;;4178328;28;20110;-37
2022/01/18 08:24:03;;;;;;;0.77;0.22;;;;;;;;;;4174588;28;20049;-41
2022/01/18 08:26:04;;;;;;;0.63;0.20;;;;;;;;;;4182095;28;20056;-38
2022/01/18 08:28:06;;;;;;;1.02;0.20;;;;;;;;;;4186511;28;20048;-37
2022/01/18 08:30:08;;;;;;;1.38;0.35;;;;;;;;;;4179073;28;20060;-36
2022/01/18 08:32:09;;;;;;;0.60;0.30;;;;;;;;;;4183175;28;20052;-36
2022/01/18 08:34:10;;;;;;;0.47;0.22;;;;;;;;;;4182540;28;20507;-38
2022/01/18 08:36:11;;;;;;;1.58;0.30;;;;;;;;;;4182717;28;20083;-40
2022/01/18 08:38:12;;;;;;;1.42;0.43;;;;;;;;;;4185981;28;20489;-41
2022/01/18 08:40:13;;;;;;;1.00;0.30;;;;;;;;;;4182167;28;20143;-39
2022/01/18 08:42:14;;;;;;;1.27;0.40;;;;;;;;;;4184484;28;20044;-38
2022/01/18 08:44:16;;;;;;;1.38;0.20;;;;;;;;;;4180329;28;20140;-35
2022/01/18 08:46:17;;;;;;;0.65;0.30;;;;;;;;;;4179642;28;20117;-38
2022/01/18 08:48:18;;;;;;;1.48;0.30;;;;;;;;;;4178399;28;20561;-38
2022/01/18 08:50:19;;;;;;;0.20;0.20;;;;;;;;;;4169291;28;20052;-40
2022/01/18 08:52:20;;;;;;;0.77;0.40;;;;;;;;;;4168400;28;20082;-39
2022/01/18 08:54:21;;;;;;;1.42;0.50;;;;;;;;;;4169139;28;20057;-34
2022/01/18 08:56:23;;;;;;;0.43;0.32;;;;;;;;;;4170022;28;20684;-40
2022/01/18 08:58:26;;;;;;;0.30;0.20;;;;;;;;;;4172826;28;20419;-37
2022/01/18 09:00:27;;;;;;;0.32;0.30;;;;;;;;;;4160806;28;20087;-36
2022/01/18 09:02:28;;;;;;;0.57;0.25;;;;;;;;;;4169499;28;22209;-36
2022/01/18 09:04:29;;;;;;;0.63;0.10;;;;;;;;;;4168871;28;20459;-38
2022/01/18 09:06:31;;;;;;;3.33;0.32;;;;;;;;;;4170383;28;20521;-40
2022/01/18 09:08:34;;;;;;;1.38;0.30;;;;;;;;;;4179291;28;20049;-40
2022/01/18 09:10:35;;;;;;;0.70;0.40;;;;;;;;;;4182607;28;20056;-40
2022/01/18 09:12:37;;;;;;;1.45;0.40;;;;;;;;;;4170261;28;20053;-36
2022/01/18 09:14:38;;;;;;;1.25;0.38;;;;;;;;;;4168699;28;20411;-37
2022/01/18 09:16:39;;;;;;;1.75;0.30;;;;;;;;;;4172099;28;20053;-38
2022/01/18 09:18:41;;;;;;;3.55;0.60;;;;;;;;;;4180252;28;20117;-38
2022/01/18 09:20:41;;;;;;;1.92;0.55;;;;;;;;;;4180066;28;20080;-38
2022/01/18 09:22:44;;;;;;;1.48;0.50;;;;;;;;;;4176589;28;20093;-34
2022/01/18 09:24:45;;;;;;;2.55;0.32;;;;;;;;;;4178158;28;20091;-37
2022/01/18 09:26:46;;;;;;;2.97;0.93;;;;;;;;;;4179081;28;20063;-34
2022/01/18 09:28:47;;;;;;;3.13;0.40;;;;;;;;;;4181410;28;20595;-39
2022/01/18 09:30:48;;;;;;;1.60;0.40;;;;;;;;;;4178290;28;20131;-39
2022/01/18 09:32:49;;;;;;;2.90;0.60;;;;;;;;;;4179824;28;20102;-38
2022/01/18 09:34:51;;;;;;;0.70;0.52;;;;;;;;;;4170356;28;20154;-37
2022/01/18 09:36:52;;;;;;;0.50;0.30;;;;;;;;;;4180580;28;20554;-36
2022/01/18 09:38:53;;;;;;;2.70;0.50;;;;;;;;;;4180262;28;20057;-34
2022/01/18 09:40:54;;;;;;;2.30;0.70;;;;;;;;;;4171272;28;20155;-37
2022/01/18 09:42:59;;;;;;;1.55;0.57;;;;;;;;;;4172342;28;20073;-35
2022/01/18 09:45:01;;;;;;;2.55;0.40;;;;;;;;;;4175194;28;20424;-38
2022/01/18 09:47:03;;;;;;;3.95;0.40;;;;;;;;;;4170151;28;20534;-40
2022/01/18 09:49:05;;;;;;;1.30;0.30;;;;;;;;;;4172042;28;20106;-35
2022/01/18 09:51:06;;;;;;;1.38;0.35;;;;;;;;;;4167345;28;20118;-37
2022/01/18 09:53:09;;;;;;;3.60;0.30;;;;;;;;;;4175727;28;20049;-39
2022/01/18 09:55:10;;;;;;;2.50;0.70;;;;;;;;;;4174951;28;20071;-35
2022/01/18 09:57:11;;;;;;;1.63;0.32;;;;;;;;;;4166631;28;20053;-41
2022/01/18 09:59:12;;;;;;;2.75;0.63;;;;;;;;;;4176464;28;20055;-35
2022/01/18 10:01:13;;;;;;;1.05;0.50;;;;;;;;;;4177053;28;20075;-33
2022/01/18 10:03:25;;;;;;;2.50;0.40;;;;;;;;;;4168356;28;20056;-32
2022/01/18 10:05:26;;;;;;;1.23;0.30;;;;;;;;;;4176970;28;20106;-34
2022/01/18 10:07:32;;;;;;;0.75;0.32;;;;;;;;;;4168649;28;20056;-40
2022/01/18 10:09:34;;;;;;;2.70;0.70;;;;;;;;;;4175701;28;20554;-37
2022/01/18 10:11:35;;;;;;;1.00;0.40;;;;;;;;;;4179534;28;20473;-34
2022/01/18 10:13:36;;;;;;;2.50;0.52;;;;;;;;;;4180585;28;20127;-38
2022/01/18 10:15:37;;;;;;;2.42;0.30;;;;;;;;;;4175946;28;20515;-38
2022/01/18 10:17:40;;;;;;;0.93;0.40;;;;;;;;;;4178304;28;20060;-36
2022/01/18 10:19:50;;;;;;;1.33;0.57;;;;;;;;;;4180030;28;20409;-38
2022/01/18 10:21:51;;;;;;;1.90;0.50;;;;;;;;;;4175168;28;20133;-35
2022/01/18 10:24:08;;;;;;;1.88;0.40;;;;;;;;;;4178455;28;20515;-35
2022/01/18 10:26:22;;;;;;;0.55;0.28;;;;;;;;;;4180296;28;20052;-36
2022/01/18 10:28:30;;;;;;;1.48;0.52;;;;;;;;;;4172212;28;20122;-38
2022/01/18 10:30:37;;;;;;;1.52;0.30;;;;;;;;;;4172748;28;20061;-35
2022/01/18 10:32:41;;;;;;;2.20;0.70;;;;;;;;;;4174327;28;20052;-36
2022/01/18 10:35:04;;;;;;;1.25;0.32;;;;;;;;;;4176466;28;20082;-37
2022/01/18 10:37:13;;;;;;;0.85;0.50;;;;;;;;;;4179351;28;20052;-37
2022/01/18 10:39:19;;;;;;;0.50;0.40;;;;;;;;;;4174010;28;20426;-35
2022/01/18 10:41:31;;;;;;;0.88;0.40;;;;;;;;;;4172607;28;20484;-36
2022/01/18 10:43:33;;;;;;;2.47;0.50;;;;;;;;;;4173480;28;20562;-39
2022/01/18 10:45:39;;;;;;;0.75;0.30;;;;;;;;;;4173169;28;20052;-38
2022/01/18 10:47:49;;;;;;;0.30;0.30;;;;;;;;;;4174590;28;20298;-40
2022/01/18 10:49:50;;;;;;;1.42;0.35;;;;;;;;;;4171416;28;20419;-36
2022/01/18 10:51:59;;;;;;;0.50;0.40;;;;;;;;;;4171638;28;20049;-36
2022/01/18 10:54:05;;;;;;;0.93;0.47;;;;;;;;;;4178712;28;20094;-40
2022/01/18 10:56:14;;;;;;;0.70;0.30;;;;;;;;;;4173733;28;22354;-36
2022/01/18 10:58:16;;;;;;;0.85;0.50;;;;;;;;;;4171092;28;20060;-37
2022/01/18 11:00:22;;;;;;;0.47;0.30;;;;;;;;;;4173974;28;20126;-40
2022/01/18 11:02:23;;;;;;;0.93;0.40;;;;;;;;;;4177803;28;20056;-41
2022/01/18 11:04:27;;;;;;;0.82;0.40;;;;;;;;;;4141302;28;20768;-36
2022/01/18 11:06:29;;;;;;;0.88;0.38;;;;;;;;;;4163837;28;20115;-38
2022/01/18 11:08:51;;;;;;;1.45;0.40;;;;;;;;;;4171907;28;20044;-40
2022/01/18 11:10:58;;;;;;;;;;;;;;;;;;4167326;28;20741;-35
2022/01/18 11:15:07;;;;;;;0.82;0.43;;;;;;;;;;4169922;28;20137;-39
2022/01/18 11:17:11;;;;;;;1.40;0.68;;;;;;;;;;4173858;28;20048;-40
2022/01/18 11:19:28;;;;;;;1.98;0.50;;;;;;;;;;4172544;28;20061;-37
2022/01/18 11:21:29;;;;;;;1.85;0.50;;;;;;;;;;4173588;28;20107;-46
2022/01/18 11:23:33;;;;;;;1.75;0.60;;;;;;;;;;4164659;28;20127;-46
2022/01/18 11:25:36;;;;;;;0.52;0.30;;;;;;;;;;4179720;28;20048;-46
2022/01/18 11:27:39;;;;;;;0.55;0.30;;;;;;;;;;4174158;28;20452;-46
2022/01/18 11:29:44;;;;;;;0.77;0.40;;;;;;;;;;4177257;28;20055;-46
2022/01/18 11:31:46;;;;;;;1.63;0.50;;;;;;;;;;4175912;28;20101;-46
2022/01/18 11:33:52;;;;;;;0.93;0.50;;;;;;;;;;4178897;28;20142;-46
2022/01/18 11:36:08;;;;;;;1.45;0.70;;;;;;;;;;4170530;28;20060;-46
2022/01/18 11:38:14;;;;;;;1.10;0.35;;;;;;;;;;4173019;28;20548;-46
2022/01/18 11:40:16;;;;;;;1.70;0.50;;;;;;;;;;4194535;28;20059;-46
2022/01/18 11:42:17;;;;;;;1.77;0.30;;;;;;;;;;4177122;28;20048;-44
2022/01/18 11:44:26;;;;;;;1.20;0.50;;;;;;;;;;4177024;28;20048;-45
2022/01/18 11:46:34;;;;;;;2.15;0.80;;;;;;;;;;4175623;28;20064;-45
2022/01/18 11:48:43;;;;;;;2.00;0.47;;;;;;;;;;4170074;28;20057;-44
2022/01/18 11:50:50;;;;;;;1.02;0.70;;;;;;;;;;4173672;28;20071;-45
2022/01/18 11:53:21;;;;;;;1.73;0.32;;;;;;;;;;4177739;28;20045;-45
2022/01/18 11:55:34;;;;;;;1.38;0.52;;;;;;;;;;4184766;28;20522;-44
2022/01/18 11:57:36;;;;;;;0.90;0.40;;;;;;;;;;4171722;28;20863;-45
2022/01/18 11:59:39;;;;;;;0.70;0.40;;;;;;;;;;4166897;28;20060;-45
2022/01/18 12:01:47;;;;;;;0.73;0.40;;;;;;;;;;4177143;28;20779;-44
2022/01/18 12:03:49;;;;;;;0.75;0.40;;;;;;;;;;4167837;28;20052;-46
2022/01/18 12:05:55;;;;;;;2.60;0.55;;;;;;;;;;4176779;28;20044;-46
2022/01/18 12:07:58;;;;;;;0.28;0.20;;;;;;;;;;4169395;28;20106;-44
2022/01/18 12:10:00;;;;;;;0.60;0.30;;;;;;;;;;4168871;28;20106;-45
2022/01/18 12:12:04;;;;;;;1.50;0.50;;;;;;;;;;4171839;28;21562;-45
2022/01/18 12:14:06;;;;;;;0.85;0.40;;;;;;;;;;4176804;28;20052;-44
2022/01/18 12:16:16;;;;;;;1.08;0.30;;;;;;;;;;4160903;28;20052;-45
2022/01/18 12:18:25;;;;;;;0.60;0.32;;;;;;;;;;4176199;28;20118;-45
2022/01/18 12:20:54;;;;;;;1.67;0.30;;;;;;;;;;4178187;28;20098;-44
2022/01/18 12:23:00;;;;;;;1.38;0.30;;;;;;;;;;4179974;28;20060;-42
2022/01/18 12:25:20;;;;;;;1.55;0.50;;;;;;;;;;4170446;28;20451;-45
2022/01/18 12:27:32;;;;;;;0.55;0.20;;;;;;;;;;4178044;28;20546;-44
2022/01/18 12:33:48;;;;;;;0.90;0.40;;;;;;;;;;4173022;28;20044;-46
2022/01/18 12:35:49;;;;;;;1.05;0.50;;;;;;;;;;4159902;28;20771;-44
2022/01/18 12:37:51;;;;;;;1.08;0.30;;;;;;;;;;4176216;28;20831;-46
2022/01/18 12:42:19;;;;;;;0.90;0.30;;;;;;;;;;4168278;28;22001;-44
2022/01/18 12:44:21;;;;;;;1.90;0.90;;;;;;;;;;4169060;28;20114;-45
2022/01/18 12:46:23;;;;;;;0.65;0.30;;;;;;;;;;4171988;28;20055;-44
2022/01/18 12:48:24;;;;;;;1.13;0.30;;;;;;;;;;4176024;28;20998;-43
2022/01/18 12:50:38;;;;;;;0.98;0.25;;;;;;;;;;4171254;28;20971;-45
2022/01/18 12:52:57;;;;;;;1.23;0.52;;;;;;;;;;4175670;28;20102;-44
2022/01/18 12:54:58;;;;;;;1.08;0.30;;;;;;;;;;4174660;28;20162;-46
2022/01/18 12:57:18;;;;;;;0.15;0.15;;;;;;;;;;4163709;28;20049;-45
2022/01/18 12:59:19;;;;;;;0.28;0.10;;;;;;;;;;4177243;28;20056;-46
2022/01/18 13:01:24;;;;;;;0.38;0.20;;;;;;;;;;4175389;28;20051;-44
2022/01/18 13:03:25;;;;;;;1.65;0.32;;;;;;;;;;4179510;28;20068;-45
2022/01/18 13:05:34;;;;;;;2.47;0.30;;;;;;;;;;4176347;28;20126;-45
2022/01/18 13:07:53;;;;;;;1.00;0.47;;;;;;;;;;4173776;28;20484;-44
2022/01/18 13:09:56;;;;;;;0.93;0.40;;;;;;;;;;4175206;28;20052;-44
2022/01/18 13:12:00;;;;;;;0.88;0.32;;;;;;;;;;4171224;28;20052;-44
2022/01/18 13:14:11;;;;;;;0.40;0.28;;;;;;;;;;4174454;28;20597;-44
2022/01/18 13:23:04;;;;;;;1.33;0.25;;;;;;;;;;4177070;28;20056;-45
2022/01/18 13:25:11;;;;;;;0.22;0.20;;;;;;;;;;4181124;28;20099;-44
2022/01/18 13:27:30;;;;;;;0.93;0.28;;;;;;;;;;4177343;28;20101;-44
2022/01/18 13:29:31;;;;;;;1.33;0.40;;;;;;;;;;4173128;28;20053;-44
2022/01/18 13:31:33;;;;;;;0.50;0.30;;;;;;;;;;4179571;28;20308;-43
2022/01/18 13:33:53;;;;;;;2.15;0.38;;;;;;;;;;4172975;28;20053;-45
2022/01/18 13:36:02;;;;;;;5.50;0.30;;;;;;;;;;4167564;28;20060;-43
2022/01/18 13:38:04;;;;;;;0.77;0.27;;;;;;;;;;4171909;28;20358;-43
2022/01/18 13:40:15;;;;;;;0.98;0.50;;;;;;;;;;4180540;28;20052;-44
2022/01/18 13:42:20;;;;;;;0.75;0.28;;;;;;;;;;4178658;28;20052;-44
2022/01/18 13:44:22;;;;;;;1.08;0.40;;;;;;;;;;4186387;28;20101;-45
2022/01/18 13:46:24;;;;;;;1.02;0.22;;;;;;;;;;4178082;28;20083;-45
2022/01/18 13:48:31;;;;;;;0.85;0.30;;;;;;;;;;4173898;28;20041;-45